sensor_id;sensor_type;location;lat;lon;timestamp;P1;durP1;ratioP1;P2;durP2;ratioP2
15681;SDS011;7941;50.966;6.978;2022-11-20T00:00:05;22.27;;;19.97;;
15681;SDS011;7941;50.966;6.978;2022-11-20T00:02:32;23.07;;;20.73;;
15681;SDS011;7941;50.966;6.978;2022-11-20T00:04:58;21.97;;;19.77;;
15681;SDS011;7941;50.966;6.978;2022-11-20T00:07:24;21.50;;;19.37;;
15681;SDS011;7941;50.966;6.978;2022-11-20T00:09:50;22.17;;;19.97;;
15681;SDS011;7941;50.966;6.978;2022-11-20T00:12:17;21.87;;;19.47;;
15681;SDS011;7941;50.966;6.978;2022-11-20T00:14:43;21.40;;;19.20;;
15681;SDS011;7941;50.966;6.978;2022-11-20T00:17:09;20.57;;;18.37;;
15681;SDS011;7941;50.966;6.978;2022-11-20T00:19:35;22.00;;;19.70;;
15681;SDS011;7941;50.966;6.978;2022-11-20T00:22:01;21.20;;;19.10;;
15681;SDS011;7941;50.966;6.978;2022-11-20T00:24:28;21.07;;;18.63;;
15681;SDS011;7941;50.966;6.978;2022-11-20T00:26:54;20.63;;;18.47;;
15681;SDS011;7941;50.966;6.978;2022-11-20T00:29:20;21.07;;;18.97;;
15681;SDS011;7941;50.966;6.978;2022-11-20T00:31:47;20.67;;;18.67;;
15681;SDS011;7941;50.966;6.978;2022-11-20T00:34:13;21.50;;;19.20;;
15681;SDS011;7941;50.966;6.978;2022-11-20T00:36:39;19.67;;;17.67;;
15681;SDS011;7941;50.966;6.978;2022-11-20T00:39:05;20.90;;;18.57;;
15681;SDS011;7941;50.966;6.978;2022-11-20T00:41:31;21.37;;;19.27;;
15681;SDS011;7941;50.966;6.978;2022-11-20T00:43:58;20.23;;;18.23;;
15681;SDS011;7941;50.966;6.978;2022-11-20T00:46:25;20.70;;;18.60;;
15681;SDS011;7941;50.966;6.978;2022-11-20T00:48:51;19.73;;;17.83;;
15681;SDS011;7941;50.966;6.978;2022-11-20T00:51:18;19.33;;;17.33;;
15681;SDS011;7941;50.966;6.978;2022-11-20T00:53:45;21.07;;;18.83;;
15681;SDS011;7941;50.966;6.978;2022-11-20T00:56:12;20.77;;;18.70;;
15681;SDS011;7941;50.966;6.978;2022-11-20T00:58:39;19.43;;;17.47;;
15681;SDS011;7941;50.966;6.978;2022-11-20T01:01:09;19.87;;;17.87;;
15681;SDS011;7941;50.966;6.978;2022-11-20T01:03:37;20.97;;;18.77;;
15681;SDS011;7941;50.966;6.978;2022-11-20T01:06:04;20.33;;;18.23;;
15681;SDS011;7941;50.966;6.978;2022-11-20T01:08:32;20.00;;;17.93;;
15681;SDS011;7941;50.966;6.978;2022-11-20T01:10:59;20.13;;;18.03;;
15681;SDS011;7941;50.966;6.978;2022-11-20T01:13:26;21.03;;;18.83;;
15681;SDS011;7941;50.966;6.978;2022-11-20T01:16:09;20.83;;;18.50;;
15681;SDS011;7941;50.966;6.978;2022-11-20T01:18:36;21.37;;;19.17;;
15681;SDS011;7941;50.966;6.978;2022-11-20T01:21:07;20.30;;;18.20;;
15681;SDS011;7941;50.966;6.978;2022-11-20T01:23:34;20.87;;;18.27;;
15681;SDS011;7941;50.966;6.978;2022-11-20T01:26:01;20.70;;;18.70;;
15681;SDS011;7941;50.966;6.978;2022-11-20T01:28:28;21.27;;;19.07;;
15681;SDS011;7941;50.966;6.978;2022-11-20T01:30:54;19.80;;;17.67;;
15681;SDS011;7941;50.966;6.978;2022-11-20T01:33:20;20.93;;;18.70;;
15681;SDS011;7941;50.966;6.978;2022-11-20T01:35:46;22.00;;;19.67;;
15681;SDS011;7941;50.966;6.978;2022-11-20T01:38:13;22.00;;;19.87;;
15681;SDS011;7941;50.966;6.978;2022-11-20T01:40:40;21.40;;;19.20;;
15681;SDS011;7941;50.966;6.978;2022-11-20T01:43:12;20.83;;;18.63;;
15681;SDS011;7941;50.966;6.978;2022-11-20T01:46:04;21.73;;;19.43;;
15681;SDS011;7941;50.966;6.978;2022-11-20T01:48:36;21.10;;;18.90;;
15681;SDS011;7941;50.966;6.978;2022-11-20T01:51:05;20.10;;;18.20;;
15681;SDS011;7941;50.966;6.978;2022-11-20T01:53:33;20.53;;;18.50;;
15681;SDS011;7941;50.966;6.978;2022-11-20T01:56:01;20.33;;;18.33;;
15681;SDS011;7941;50.966;6.978;2022-11-20T01:58:29;20.27;;;18.13;;
15681;SDS011;7941;50.966;6.978;2022-11-20T02:00:56;20.63;;;18.57;;
15681;SDS011;7941;50.966;6.978;2022-11-20T02:03:23;19.83;;;17.87;;
15681;SDS011;7941;50.966;6.978;2022-11-20T02:06:01;19.83;;;17.53;;
15681;SDS011;7941;50.966;6.978;2022-11-20T02:08:30;20.20;;;18.00;;
15681;SDS011;7941;50.966;6.978;2022-11-20T02:10:56;20.40;;;18.30;;
15681;SDS011;7941;50.966;6.978;2022-11-20T02:13:22;20.83;;;18.83;;
15681;SDS011;7941;50.966;6.978;2022-11-20T02:19:09;18.73;;;16.87;;
15681;SDS011;7941;50.966;6.978;2022-11-20T02:21:47;20.20;;;18.03;;
15681;SDS011;7941;50.966;6.978;2022-11-20T02:24:15;18.93;;;17.03;;
15681;SDS011;7941;50.966;6.978;2022-11-20T02:26:48;19.87;;;17.73;;
15681;SDS011;7941;50.966;6.978;2022-11-20T02:29:16;19.10;;;17.10;;
15681;SDS011;7941;50.966;6.978;2022-11-20T02:31:43;19.30;;;17.30;;
15681;SDS011;7941;50.966;6.978;2022-11-20T02:34:10;19.50;;;17.57;;
15681;SDS011;7941;50.966;6.978;2022-11-20T02:36:37;18.57;;;16.60;;
15681;SDS011;7941;50.966;6.978;2022-11-20T02:39:05;19.23;;;17.43;;
15681;SDS011;7941;50.966;6.978;2022-11-20T02:41:35;19.53;;;17.43;;
15681;SDS011;7941;50.966;6.978;2022-11-20T02:44:02;20.20;;;18.10;;
15681;SDS011;7941;50.966;6.978;2022-11-20T02:46:28;19.97;;;17.97;;
15681;SDS011;7941;50.966;6.978;2022-11-20T02:48:54;20.03;;;18.07;;
15681;SDS011;7941;50.966;6.978;2022-11-20T02:51:21;20.57;;;18.37;;
15681;SDS011;7941;50.966;6.978;2022-11-20T02:53:47;20.53;;;18.37;;
15681;SDS011;7941;50.966;6.978;2022-11-20T02:56:13;19.60;;;17.57;;
15681;SDS011;7941;50.966;6.978;2022-11-20T02:58:39;19.20;;;17.50;;
15681;SDS011;7941;50.966;6.978;2022-11-20T03:01:05;20.00;;;17.97;;
15681;SDS011;7941;50.966;6.978;2022-11-20T03:03:32;21.00;;;18.27;;
15681;SDS011;7941;50.966;6.978;2022-11-20T03:05:58;19.63;;;17.60;;
15681;SDS011;7941;50.966;6.978;2022-11-20T03:08:25;19.90;;;17.90;;
15681;SDS011;7941;50.966;6.978;2022-11-20T03:10:51;20.30;;;18.20;;
15681;SDS011;7941;50.966;6.978;2022-11-20T03:13:17;20.30;;;18.13;;
15681;SDS011;7941;50.966;6.978;2022-11-20T03:15:43;20.73;;;18.73;;
15681;SDS011;7941;50.966;6.978;2022-11-20T03:18:09;20.97;;;18.77;;
15681;SDS011;7941;50.966;6.978;2022-11-20T03:20:35;19.63;;;17.73;;
15681;SDS011;7941;50.966;6.978;2022-11-20T03:23:02;19.27;;;17.33;;
15681;SDS011;7941;50.966;6.978;2022-11-20T03:25:28;20.17;;;18.13;;
15681;SDS011;7941;50.966;6.978;2022-11-20T03:27:54;22.60;;;20.30;;
15681;SDS011;7941;50.966;6.978;2022-11-20T03:30:20;21.03;;;18.83;;
15681;SDS011;7941;50.966;6.978;2022-11-20T03:32:46;21.63;;;19.43;;
15681;SDS011;7941;50.966;6.978;2022-11-20T03:35:13;20.97;;;18.37;;
15681;SDS011;7941;50.966;6.978;2022-11-20T03:37:39;20.97;;;18.77;;
15681;SDS011;7941;50.966;6.978;2022-11-20T03:40:05;21.30;;;19.10;;
15681;SDS011;7941;50.966;6.978;2022-11-20T03:42:32;21.53;;;19.23;;
15681;SDS011;7941;50.966;6.978;2022-11-20T03:45:11;21.13;;;19.03;;
15681;SDS011;7941;50.966;6.978;2022-11-20T03:47:38;21.80;;;19.50;;
15681;SDS011;7941;50.966;6.978;2022-11-20T03:50:04;21.13;;;18.93;;
15681;SDS011;7941;50.966;6.978;2022-11-20T03:52:30;22.00;;;19.80;;
15681;SDS011;7941;50.966;6.978;2022-11-20T03:54:57;21.40;;;19.30;;
15681;SDS011;7941;50.966;6.978;2022-11-20T03:57:23;21.67;;;19.03;;
15681;SDS011;7941;50.966;6.978;2022-11-20T03:59:49;22.83;;;20.43;;
15681;SDS011;7941;50.966;6.978;2022-11-20T04:02:15;22.83;;;20.23;;
15681;SDS011;7941;50.966;6.978;2022-11-20T04:04:41;24.00;;;21.47;;
15681;SDS011;7941;50.966;6.978;2022-11-20T04:07:07;23.00;;;20.50;;
15681;SDS011;7941;50.966;6.978;2022-11-20T04:09:34;21.53;;;19.23;;
15681;SDS011;7941;50.966;6.978;2022-11-20T04:12:00;23.07;;;19.73;;
15681;SDS011;7941;50.966;6.978;2022-11-20T04:14:26;22.30;;;20.03;;
15681;SDS011;7941;50.966;6.978;2022-11-20T04:16:52;23.27;;;20.87;;
15681;SDS011;7941;50.966;6.978;2022-11-20T04:19:18;22.60;;;20.20;;
15681;SDS011;7941;50.966;6.978;2022-11-20T04:21:44;23.13;;;20.77;;
15681;SDS011;7941;50.966;6.978;2022-11-20T04:24:11;24.00;;;21.60;;
15681;SDS011;7941;50.966;6.978;2022-11-20T04:26:37;25.13;;;22.43;;
15681;SDS011;7941;50.966;6.978;2022-11-20T04:29:03;23.77;;;21.23;;
15681;SDS011;7941;50.966;6.978;2022-11-20T04:31:30;25.47;;;22.87;;
15681;SDS011;7941;50.966;6.978;2022-11-20T04:34:03;26.70;;;21.87;;
15681;SDS011;7941;50.966;6.978;2022-11-20T04:36:30;26.33;;;23.27;;
15681;SDS011;7941;50.966;6.978;2022-11-20T04:39:00;25.57;;;22.17;;
15681;SDS011;7941;50.966;6.978;2022-11-20T04:41:30;24.90;;;22.23;;
15681;SDS011;7941;50.966;6.978;2022-11-20T04:43:58;27.30;;;24.17;;
15681;SDS011;7941;50.966;6.978;2022-11-20T04:46:27;26.30;;;23.43;;
15681;SDS011;7941;50.966;6.978;2022-11-20T04:48:54;26.30;;;23.50;;
15681;SDS011;7941;50.966;6.978;2022-11-20T04:51:20;27.97;;;24.13;;
15681;SDS011;7941;50.966;6.978;2022-11-20T04:53:46;28.20;;;25.23;;
15681;SDS011;7941;50.966;6.978;2022-11-20T04:56:13;28.60;;;24.27;;
15681;SDS011;7941;50.966;6.978;2022-11-20T04:58:39;30.13;;;25.33;;
15681;SDS011;7941;50.966;6.978;2022-11-20T05:01:10;28.87;;;24.97;;
15681;SDS011;7941;50.966;6.978;2022-11-20T05:03:37;26.23;;;23.40;;
15681;SDS011;7941;50.966;6.978;2022-11-20T05:06:03;27.33;;;23.67;;
15681;SDS011;7941;50.966;6.978;2022-11-20T05:08:29;26.30;;;23.60;;
15681;SDS011;7941;50.966;6.978;2022-11-20T05:11:00;24.67;;;22.07;;
15681;SDS011;7941;50.966;6.978;2022-11-20T05:13:26;24.77;;;22.03;;
15681;SDS011;7941;50.966;6.978;2022-11-20T05:15:52;26.50;;;22.90;;
15681;SDS011;7941;50.966;6.978;2022-11-20T05:18:19;24.50;;;21.90;;
15681;SDS011;7941;50.966;6.978;2022-11-20T05:20:45;27.67;;;24.70;;
15681;SDS011;7941;50.966;6.978;2022-11-20T05:23:11;25.77;;;22.43;;
15681;SDS011;7941;50.966;6.978;2022-11-20T05:25:37;29.50;;;26.30;;
15681;SDS011;7941;50.966;6.978;2022-11-20T05:28:03;26.43;;;22.67;;
15681;SDS011;7941;50.966;6.978;2022-11-20T05:30:29;24.67;;;21.83;;
15681;SDS011;7941;50.966;6.978;2022-11-20T05:32:55;23.63;;;21.23;;
15681;SDS011;7941;50.966;6.978;2022-11-20T05:35:21;26.63;;;21.80;;
15681;SDS011;7941;50.966;6.978;2022-11-20T05:37:47;24.57;;;21.97;;
15681;SDS011;7941;50.966;6.978;2022-11-20T05:40:13;26.40;;;21.93;;
15681;SDS011;7941;50.966;6.978;2022-11-20T05:42:40;27.10;;;23.50;;
15681;SDS011;7941;50.966;6.978;2022-11-20T05:45:08;25.57;;;21.70;;
15681;SDS011;7941;50.966;6.978;2022-11-20T05:47:34;26.50;;;23.70;;
15681;SDS011;7941;50.966;6.978;2022-11-20T05:50:01;24.10;;;21.60;;
15681;SDS011;7941;50.966;6.978;2022-11-20T05:52:30;24.43;;;21.30;;
15681;SDS011;7941;50.966;6.978;2022-11-20T05:54:56;22.80;;;20.47;;
15681;SDS011;7941;50.966;6.978;2022-11-20T05:57:22;23.50;;;21.07;;
15681;SDS011;7941;50.966;6.978;2022-11-20T05:59:48;24.17;;;21.60;;
15681;SDS011;7941;50.966;6.978;2022-11-20T06:02:15;22.07;;;19.87;;
15681;SDS011;7941;50.966;6.978;2022-11-20T06:04:41;21.60;;;19.30;;
15681;SDS011;7941;50.966;6.978;2022-11-20T06:07:07;23.17;;;20.67;;
15681;SDS011;7941;50.966;6.978;2022-11-20T06:09:33;21.63;;;19.33;;
15681;SDS011;7941;50.966;6.978;2022-11-20T06:11:59;22.13;;;19.57;;
15681;SDS011;7941;50.966;6.978;2022-11-20T06:14:25;22.27;;;18.83;;
15681;SDS011;7941;50.966;6.978;2022-11-20T06:16:52;21.50;;;19.23;;
15681;SDS011;7941;50.966;6.978;2022-11-20T06:19:18;20.97;;;18.77;;
15681;SDS011;7941;50.966;6.978;2022-11-20T06:21:44;22.70;;;20.30;;
15681;SDS011;7941;50.966;6.978;2022-11-20T06:24:11;22.17;;;19.13;;
15681;SDS011;7941;50.966;6.978;2022-11-20T06:26:37;21.83;;;19.53;;
15681;SDS011;7941;50.966;6.978;2022-11-20T06:29:03;23.40;;;20.20;;
15681;SDS011;7941;50.966;6.978;2022-11-20T06:31:29;23.27;;;20.93;;
15681;SDS011;7941;50.966;6.978;2022-11-20T06:33:57;24.47;;;21.07;;
15681;SDS011;7941;50.966;6.978;2022-11-20T06:36:24;25.00;;;20.43;;
15681;SDS011;7941;50.966;6.978;2022-11-20T06:38:50;25.73;;;22.63;;
15681;SDS011;7941;50.966;6.978;2022-11-20T06:41:17;26.10;;;22.47;;
15681;SDS011;7941;50.966;6.978;2022-11-20T06:43:44;25.03;;;22.33;;
15681;SDS011;7941;50.966;6.978;2022-11-20T06:46:11;26.70;;;23.73;;
15681;SDS011;7941;50.966;6.978;2022-11-20T06:48:37;27.33;;;24.30;;
15681;SDS011;7941;50.966;6.978;2022-11-20T06:51:04;27.33;;;23.30;;
15681;SDS011;7941;50.966;6.978;2022-11-20T06:53:30;28.10;;;23.97;;
15681;SDS011;7941;50.966;6.978;2022-11-20T06:55:57;27.23;;;23.00;;
15681;SDS011;7941;50.966;6.978;2022-11-20T06:58:23;28.80;;;24.03;;
15681;SDS011;7941;50.966;6.978;2022-11-20T07:00:52;28.23;;;23.50;;
15681;SDS011;7941;50.966;6.978;2022-11-20T07:03:18;28.40;;;23.83;;
15681;SDS011;7941;50.966;6.978;2022-11-20T07:05:44;25.37;;;22.60;;
15681;SDS011;7941;50.966;6.978;2022-11-20T07:08:11;25.50;;;22.50;;
15681;SDS011;7941;50.966;6.978;2022-11-20T07:10:37;27.43;;;23.67;;
15681;SDS011;7941;50.966;6.978;2022-11-20T07:13:03;26.97;;;22.63;;
15681;SDS011;7941;50.966;6.978;2022-11-20T07:15:30;25.37;;;22.60;;
15681;SDS011;7941;50.966;6.978;2022-11-20T07:17:59;24.00;;;21.13;;
15681;SDS011;7941;50.966;6.978;2022-11-20T07:20:25;25.60;;;21.83;;
15681;SDS011;7941;50.966;6.978;2022-11-20T07:22:55;24.73;;;22.10;;
15681;SDS011;7941;50.966;6.978;2022-11-20T07:25:22;23.97;;;21.47;;
15681;SDS011;7941;50.966;6.978;2022-11-20T07:27:48;24.83;;;22.13;;
15681;SDS011;7941;50.966;6.978;2022-11-20T07:30:15;24.10;;;21.43;;
15681;SDS011;7941;50.966;6.978;2022-11-20T07:32:41;24.57;;;21.97;;
15681;SDS011;7941;50.966;6.978;2022-11-20T07:35:07;24.37;;;21.77;;
15681;SDS011;7941;50.966;6.978;2022-11-20T07:37:34;27.53;;;24.57;;
15681;SDS011;7941;50.966;6.978;2022-11-20T07:40:00;24.87;;;21.97;;
15681;SDS011;7941;50.966;6.978;2022-11-20T07:42:26;25.83;;;22.83;;
15681;SDS011;7941;50.966;6.978;2022-11-20T07:44:53;25.83;;;23.03;;
15681;SDS011;7941;50.966;6.978;2022-11-20T07:47:19;24.90;;;22.23;;
15681;SDS011;7941;50.966;6.978;2022-11-20T07:49:45;24.57;;;22.07;;
15681;SDS011;7941;50.966;6.978;2022-11-20T07:52:12;27.30;;;23.43;;
15681;SDS011;7941;50.966;6.978;2022-11-20T07:54:38;28.47;;;23.30;;
15681;SDS011;7941;50.966;6.978;2022-11-20T07:57:04;25.07;;;21.97;;
15681;SDS011;7941;50.966;6.978;2022-11-20T07:59:30;25.73;;;22.23;;
15681;SDS011;7941;50.966;6.978;2022-11-20T08:01:56;23.83;;;21.47;;
15681;SDS011;7941;50.966;6.978;2022-11-20T08:04:22;27.07;;;22.40;;
15681;SDS011;7941;50.966;6.978;2022-11-20T08:06:48;26.17;;;23.37;;
15681;SDS011;7941;50.966;6.978;2022-11-20T08:09:15;26.43;;;23.27;;
15681;SDS011;7941;50.966;6.978;2022-11-20T08:11:41;26.13;;;23.07;;
15681;SDS011;7941;50.966;6.978;2022-11-20T08:14:25;25.13;;;22.43;;
15681;SDS011;7941;50.966;6.978;2022-11-20T08:16:53;25.93;;;22.70;;
15681;SDS011;7941;50.966;6.978;2022-11-20T08:19:19;25.60;;;22.80;;
15681;SDS011;7941;50.966;6.978;2022-11-20T08:21:45;26.07;;;23.37;;
15681;SDS011;7941;50.966;6.978;2022-11-20T08:24:12;25.57;;;22.50;;
15681;SDS011;7941;50.966;6.978;2022-11-20T08:26:38;25.13;;;22.37;;
15681;SDS011;7941;50.966;6.978;2022-11-20T08:29:05;24.93;;;22.33;;
15681;SDS011;7941;50.966;6.978;2022-11-20T08:31:31;24.93;;;22.33;;
15681;SDS011;7941;50.966;6.978;2022-11-20T08:33:58;24.20;;;21.67;;
15681;SDS011;7941;50.966;6.978;2022-11-20T08:36:24;25.53;;;22.73;;
15681;SDS011;7941;50.966;6.978;2022-11-20T08:38:51;25.00;;;22.33;;
15681;SDS011;7941;50.966;6.978;2022-11-20T08:41:18;23.37;;;20.87;;
15681;SDS011;7941;50.966;6.978;2022-11-20T08:43:55;25.67;;;22.60;;
15681;SDS011;7941;50.966;6.978;2022-11-20T08:46:23;24.20;;;21.70;;
15681;SDS011;7941;50.966;6.978;2022-11-20T08:48:49;23.30;;;20.80;;
15681;SDS011;7941;50.966;6.978;2022-11-20T08:51:16;25.63;;;21.87;;
15681;SDS011;7941;50.966;6.978;2022-11-20T08:53:42;23.60;;;21.10;;
15681;SDS011;7941;50.966;6.978;2022-11-20T08:56:08;24.47;;;21.43;;
15681;SDS011;7941;50.966;6.978;2022-11-20T08:58:35;26.83;;;23.17;;
15681;SDS011;7941;50.966;6.978;2022-11-20T09:01:02;23.60;;;21.20;;
15681;SDS011;7941;50.966;6.978;2022-11-20T09:03:28;25.50;;;21.40;;
15681;SDS011;7941;50.966;6.978;2022-11-20T09:05:58;22.17;;;20.00;;
15681;SDS011;7941;50.966;6.978;2022-11-20T09:08:25;24.07;;;21.47;;
15681;SDS011;7941;50.966;6.978;2022-11-20T09:10:51;23.70;;;21.13;;
15681;SDS011;7941;50.966;6.978;2022-11-20T09:13:19;22.53;;;20.23;;
15681;SDS011;7941;50.966;6.978;2022-11-20T09:15:45;25.37;;;22.67;;
15681;SDS011;7941;50.966;6.978;2022-11-20T09:18:11;26.10;;;23.23;;
15681;SDS011;7941;50.966;6.978;2022-11-20T09:20:37;29.60;;;25.67;;
15681;SDS011;7941;50.966;6.978;2022-11-20T09:23:03;24.67;;;22.03;;
15681;SDS011;7941;50.966;6.978;2022-11-20T09:25:30;25.07;;;22.47;;
15681;SDS011;7941;50.966;6.978;2022-11-20T09:27:59;25.03;;;22.43;;
15681;SDS011;7941;50.966;6.978;2022-11-20T09:30:25;27.17;;;23.07;;
15681;SDS011;7941;50.966;6.978;2022-11-20T09:32:52;24.30;;;21.67;;
15681;SDS011;7941;50.966;6.978;2022-11-20T09:35:18;25.20;;;22.50;;
15681;SDS011;7941;50.966;6.978;2022-11-20T09:37:44;25.97;;;22.27;;
15681;SDS011;7941;50.966;6.978;2022-11-20T09:40:20;24.60;;;22.07;;
15681;SDS011;7941;50.966;6.978;2022-11-20T09:55:41;24.23;;;21.77;;
15681;SDS011;7941;50.966;6.978;2022-11-20T09:58:14;22.83;;;20.53;;
15681;SDS011;7941;50.966;6.978;2022-11-20T10:00:42;27.63;;;24.37;;
15681;SDS011;7941;50.966;6.978;2022-11-20T10:03:13;25.83;;;23.07;;
15681;SDS011;7941;50.966;6.978;2022-11-20T10:05:49;24.87;;;22.37;;
15681;SDS011;7941;50.966;6.978;2022-11-20T10:10:44;28.00;;;23.97;;
15681;SDS011;7941;50.966;6.978;2022-11-20T10:20:58;26.80;;;24.00;;
15681;SDS011;7941;50.966;6.978;2022-11-20T10:28:46;26.13;;;23.37;;
15681;SDS011;7941;50.966;6.978;2022-11-20T10:31:17;26.13;;;23.27;;
15681;SDS011;7941;50.966;6.978;2022-11-20T10:33:50;25.40;;;22.60;;
15681;SDS011;7941;50.966;6.978;2022-11-20T10:36:20;25.97;;;23.17;;
15681;SDS011;7941;50.966;6.978;2022-11-20T10:38:51;27.07;;;23.97;;
15681;SDS011;7941;50.966;6.978;2022-11-20T10:41:24;28.40;;;24.23;;
15681;SDS011;7941;50.966;6.978;2022-11-20T10:43:54;31.53;;;26.50;;
15681;SDS011;7941;50.966;6.978;2022-11-20T10:46:23;29.37;;;25.53;;
15681;SDS011;7941;50.966;6.978;2022-11-20T10:48:50;29.80;;;26.17;;
15681;SDS011;7941;50.966;6.978;2022-11-20T10:56:17;26.40;;;23.37;;
15681;SDS011;7941;50.966;6.978;2022-11-20T10:58:48;26.07;;;23.27;;
15681;SDS011;7941;50.966;6.978;2022-11-20T11:01:18;27.97;;;24.37;;
15681;SDS011;7941;50.966;6.978;2022-11-20T11:03:48;26.80;;;23.87;;
15681;SDS011;7941;50.966;6.978;2022-11-20T11:06:17;29.13;;;25.03;;
15681;SDS011;7941;50.966;6.978;2022-11-20T11:08:45;30.40;;;25.90;;
15681;SDS011;7941;50.966;6.978;2022-11-20T11:13:38;27.70;;;24.73;;
15681;SDS011;7941;50.966;6.978;2022-11-20T11:16:04;27.73;;;24.70;;
15681;SDS011;7941;50.966;6.978;2022-11-20T11:18:32;27.60;;;24.70;;
15681;SDS011;7941;50.966;6.978;2022-11-20T11:21:03;29.73;;;24.80;;
15681;SDS011;7941;50.966;6.978;2022-11-20T11:23:37;28.27;;;25.27;;
15681;SDS011;7941;50.966;6.978;2022-11-20T11:26:05;27.37;;;24.53;;
15681;SDS011;7941;50.966;6.978;2022-11-20T11:28:32;27.90;;;24.93;;
15681;SDS011;7941;50.966;6.978;2022-11-20T11:30:58;26.00;;;23.27;;
15681;SDS011;7941;50.966;6.978;2022-11-20T11:33:25;29.43;;;26.27;;
15681;SDS011;7941;50.966;6.978;2022-11-20T11:35:56;26.73;;;24.00;;
15681;SDS011;7941;50.966;6.978;2022-11-20T11:38:36;29.73;;;25.57;;
15681;SDS011;7941;50.966;6.978;2022-11-20T11:41:03;26.30;;;23.30;;
15681;SDS011;7941;50.966;6.978;2022-11-20T11:43:34;28.27;;;24.40;;
15681;SDS011;7941;50.966;6.978;2022-11-20T11:46:24;27.80;;;24.93;;
15681;SDS011;7941;50.966;6.978;2022-11-20T11:48:58;26.63;;;23.87;;
15681;SDS011;7941;50.966;6.978;2022-11-20T11:51:26;28.80;;;25.57;;
15681;SDS011;7941;50.966;6.978;2022-11-20T11:53:54;29.53;;;25.20;;
15681;SDS011;7941;50.966;6.978;2022-11-20T11:56:21;27.50;;;24.57;;
15681;SDS011;7941;50.966;6.978;2022-11-20T11:58:48;27.40;;;24.07;;
15681;SDS011;7941;50.966;6.978;2022-11-20T12:03:51;29.53;;;25.43;;
15681;SDS011;7941;50.966;6.978;2022-11-20T12:06:18;26.20;;;23.30;;
15681;SDS011;7941;50.966;6.978;2022-11-20T12:08:49;26.77;;;23.97;;
15681;SDS011;7941;50.966;6.978;2022-11-20T12:11:35;30.20;;;25.93;;
15681;SDS011;7941;50.966;6.978;2022-11-20T12:16:36;28.93;;;25.90;;
15681;SDS011;7941;50.966;6.978;2022-11-20T12:19:04;28.10;;;25.07;;
15681;SDS011;7941;50.966;6.978;2022-11-20T12:35:07;30.67;;;25.63;;
15681;SDS011;7941;50.966;6.978;2022-11-20T12:37:48;26.67;;;23.83;;
15681;SDS011;7941;50.966;6.978;2022-11-20T12:43:20;28.17;;;25.03;;
15681;SDS011;7941;50.966;6.978;2022-11-20T12:56:34;26.07;;;23.00;;
15681;SDS011;7941;50.966;6.978;2022-11-20T12:59:07;25.40;;;22.50;;
15681;SDS011;7941;50.966;6.978;2022-11-20T13:01:58;26.50;;;23.67;;
15681;SDS011;7941;50.966;6.978;2022-11-20T13:07:15;25.53;;;22.73;;
15681;SDS011;7941;50.966;6.978;2022-11-20T13:09:46;24.63;;;21.97;;
15681;SDS011;7941;50.966;6.978;2022-11-20T13:17:36;25.93;;;22.87;;
15681;SDS011;7941;50.966;6.978;2022-11-20T13:20:06;24.43;;;21.83;;
15681;SDS011;7941;50.966;6.978;2022-11-20T13:25:32;25.23;;;22.37;;
15681;SDS011;7941;50.966;6.978;2022-11-20T13:27:58;23.97;;;21.47;;
15681;SDS011;7941;50.966;6.978;2022-11-20T13:30:26;25.33;;;21.93;;
15681;SDS011;7941;50.966;6.978;2022-11-20T13:32:56;25.07;;;22.33;;
15681;SDS011;7941;50.966;6.978;2022-11-20T13:35:26;25.83;;;23.03;;
15681;SDS011;7941;50.966;6.978;2022-11-20T13:38:11;25.97;;;22.83;;
15681;SDS011;7941;50.966;6.978;2022-11-20T13:40:57;26.73;;;23.80;;
15681;SDS011;7941;50.966;6.978;2022-11-20T13:43:28;24.37;;;21.20;;
15681;SDS011;7941;50.966;6.978;2022-11-20T13:46:01;24.13;;;21.63;;
15681;SDS011;7941;50.966;6.978;2022-11-20T13:48:31;25.10;;;22.50;;
15681;SDS011;7941;50.966;6.978;2022-11-20T13:51:11;23.90;;;20.30;;
15681;SDS011;7941;50.966;6.978;2022-11-20T13:56:21;24.00;;;21.40;;
15681;SDS011;7941;50.966;6.978;2022-11-20T14:01:34;25.90;;;21.57;;
15681;SDS011;7941;50.966;6.978;2022-11-20T14:04:05;23.93;;;20.00;;
15681;SDS011;7941;50.966;6.978;2022-11-20T14:06:43;24.10;;;21.33;;
15681;SDS011;7941;50.966;6.978;2022-11-20T14:09:10;26.63;;;20.87;;
15681;SDS011;7941;50.966;6.978;2022-11-20T14:11:45;24.70;;;20.73;;
15681;SDS011;7941;50.966;6.978;2022-11-20T14:14:18;27.00;;;21.97;;
15681;SDS011;7941;50.966;6.978;2022-11-20T14:16:45;22.57;;;19.67;;
15681;SDS011;7941;50.966;6.978;2022-11-20T14:21:52;24.60;;;21.03;;
15681;SDS011;7941;50.966;6.978;2022-11-20T14:24:20;27.03;;;22.10;;
15681;SDS011;7941;50.966;6.978;2022-11-20T14:26:47;24.73;;;21.93;;
15681;SDS011;7941;50.966;6.978;2022-11-20T14:29:17;24.77;;;21.43;;
15681;SDS011;7941;50.966;6.978;2022-11-20T14:31:44;24.13;;;20.50;;
15681;SDS011;7941;50.966;6.978;2022-11-20T14:34:22;23.90;;;20.07;;
15681;SDS011;7941;50.966;6.978;2022-11-20T14:36:50;24.30;;;19.70;;
15681;SDS011;7941;50.966;6.978;2022-11-20T14:39:21;25.73;;;22.10;;
15681;SDS011;7941;50.966;6.978;2022-11-20T14:41:51;22.83;;;20.07;;
15681;SDS011;7941;50.966;6.978;2022-11-20T14:44:17;23.97;;;19.67;;
15681;SDS011;7941;50.966;6.978;2022-11-20T14:46:45;23.17;;;20.17;;
15681;SDS011;7941;50.966;6.978;2022-11-20T14:49:11;22.17;;;19.87;;
15681;SDS011;7941;50.966;6.978;2022-11-20T14:51:38;24.83;;;22.07;;
15681;SDS011;7941;50.966;6.978;2022-11-20T14:54:15;22.67;;;20.23;;
15681;SDS011;7941;50.966;6.978;2022-11-20T14:56:41;25.17;;;20.30;;
15681;SDS011;7941;50.966;6.978;2022-11-20T14:59:10;23.37;;;20.23;;
15681;SDS011;7941;50.966;6.978;2022-11-20T15:01:37;26.50;;;21.23;;
15681;SDS011;7941;50.966;6.978;2022-11-20T15:04:10;24.13;;;20.67;;
15681;SDS011;7941;50.966;6.978;2022-11-20T15:06:37;24.07;;;21.40;;
15681;SDS011;7941;50.966;6.978;2022-11-20T15:09:04;24.37;;;21.43;;
15681;SDS011;7941;50.966;6.978;2022-11-20T15:11:34;23.83;;;21.27;;
15681;SDS011;7941;50.966;6.978;2022-11-20T15:14:02;24.53;;;21.43;;
15681;SDS011;7941;50.966;6.978;2022-11-20T15:16:29;26.60;;;22.47;;
15681;SDS011;7941;50.966;6.978;2022-11-20T15:18:56;27.33;;;21.77;;
15681;SDS011;7941;50.966;6.978;2022-11-20T15:21:22;24.10;;;21.50;;
15681;SDS011;7941;50.966;6.978;2022-11-20T15:23:48;25.23;;;22.30;;
15681;SDS011;7941;50.966;6.978;2022-11-20T15:26:23;25.70;;;22.93;;
15681;SDS011;7941;50.966;6.978;2022-11-20T15:28:50;29.60;;;24.30;;
15681;SDS011;7941;50.966;6.978;2022-11-20T15:31:19;29.40;;;25.03;;
15681;SDS011;7941;50.966;6.978;2022-11-20T15:33:45;31.33;;;25.80;;
15681;SDS011;7941;50.966;6.978;2022-11-20T15:36:11;32.97;;;26.40;;
15681;SDS011;7941;50.966;6.978;2022-11-20T15:38:37;30.50;;;26.37;;
15681;SDS011;7941;50.966;6.978;2022-11-20T15:41:04;31.40;;;25.43;;
15681;SDS011;7941;50.966;6.978;2022-11-20T15:43:31;31.97;;;25.73;;
15681;SDS011;7941;50.966;6.978;2022-11-20T15:46:00;36.13;;;28.63;;
15681;SDS011;7941;50.966;6.978;2022-11-20T15:48:29;30.23;;;25.60;;
15681;SDS011;7941;50.966;6.978;2022-11-20T15:51:02;30.87;;;25.43;;
15681;SDS011;7941;50.966;6.978;2022-11-20T15:53:29;32.67;;;26.47;;
15681;SDS011;7941;50.966;6.978;2022-11-20T15:55:55;34.37;;;26.97;;
15681;SDS011;7941;50.966;6.978;2022-11-20T15:58:22;32.40;;;26.53;;
15681;SDS011;7941;50.966;6.978;2022-11-20T16:00:49;32.73;;;26.27;;
15681;SDS011;7941;50.966;6.978;2022-11-20T16:03:16;33.83;;;24.20;;
15681;SDS011;7941;50.966;6.978;2022-11-20T16:05:42;32.30;;;25.37;;
15681;SDS011;7941;50.966;6.978;2022-11-20T16:08:11;33.63;;;25.07;;